sensor_id;sensor_type;location;lat;lon;timestamp;temperature;humidity
17893;DHT22;9072;51.918;4.380;2024-01-16T00:01:08;1.30;99.90
17893;DHT22;9072;51.918;4.380;2024-01-16T00:03:35;1.20;99.90
17893;DHT22;9072;51.918;4.380;2024-01-16T00:06:06;1.10;99.90
17893;DHT22;9072;51.918;4.380;2024-01-16T00:08:35;1.10;99.90
17893;DHT22;9072;51.918;4.380;2024-01-16T00:11:03;1.00;99.90
17893;DHT22;9072;51.918;4.380;2024-01-16T00:13:32;1.00;99.90
17893;DHT22;9072;51.918;4.380;2024-01-16T00:16:02;1.00;99.90
17893;DHT22;9072;51.918;4.380;2024-01-16T00:18:30;1.00;99.90
17893;DHT22;9072;51.918;4.380;2024-01-16T00:20:57;1.00;99.90
17893;DHT22;9072;51.918;4.380;2024-01-16T00:23:24;1.00;99.90
17893;DHT22;9072;51.918;4.380;2024-01-16T00:25:52;1.00;99.90
17893;DHT22;9072;51.918;4.380;2024-01-16T00:28:22;1.00;99.90
17893;DHT22;9072;51.918;4.380;2024-01-16T00:30:53;1.00;99.90
17893;DHT22;9072;51.918;4.380;2024-01-16T00:33:20;1.00;99.90
17893;DHT22;9072;51.918;4.380;2024-01-16T00:35:48;1.10;99.90
17893;DHT22;9072;51.918;4.380;2024-01-16T00:38:15;1.10;99.90
17893;DHT22;9072;51.918;4.380;2024-01-16T00:40:42;1.10;99.90
17893;DHT22;9072;51.918;4.380;2024-01-16T00:43:09;1.10;99.90
17893;DHT22;9072;51.918;4.380;2024-01-16T00:45:39;1.10;99.90
17893;DHT22;9072;51.918;4.380;2024-01-16T00:48:08;1.10;99.90
17893;DHT22;9072;51.918;4.380;2024-01-16T00:50:39;1.20;99.90
17893;DHT22;9072;51.918;4.380;2024-01-16T00:53:06;1.20;99.90
17893;DHT22;9072;51.918;4.380;2024-01-16T00:55:33;1.20;99.90
17893;DHT22;9072;51.918;4.380;2024-01-16T00:58:00;1.20;99.90
17893;DHT22;9072;51.918;4.380;2024-01-16T01:00:27;1.20;99.90
17893;DHT22;9072;51.918;4.380;2024-01-16T01:02:56;1.20;99.90
17893;DHT22;9072;51.918;4.380;2024-01-16T01:05:25;1.20;99.90
17893;DHT22;9072;51.918;4.380;2024-01-16T01:07:54;1.20;99.90
17893;DHT22;9072;51.918;4.380;2024-01-16T01:10:22;1.20;99.90
17893;DHT22;9072;51.918;4.380;2024-01-16T01:12:49;1.10;99.90
17893;DHT22;9072;51.918;4.380;2024-01-16T01:15:19;1.10;99.90
17893;DHT22;9072;51.918;4.380;2024-01-16T01:17:48;1.10;99.90
17893;DHT22;9072;51.918;4.380;2024-01-16T01:20:16;1.10;99.90
17893;DHT22;9072;51.918;4.380;2024-01-16T01:22:46;1.00;99.90
17893;DHT22;9072;51.918;4.380;2024-01-16T01:25:13;1.00;99.90
17893;DHT22;9072;51.918;4.380;2024-01-16T01:27:40;1.00;99.90
17893;DHT22;9072;51.918;4.380;2024-01-16T01:30:08;1.00;99.90
17893;DHT22;9072;51.918;4.380;2024-01-16T01:32:36;1.00;99.90
17893;DHT22;9072;51.918;4.380;2024-01-16T01:35:05;1.10;99.90
17893;DHT22;9072;51.918;4.380;2024-01-16T01:37:33;1.10;99.90
17893;DHT22;9072;51.918;4.380;2024-01-16T01:40:01;1.10;99.90
17893;DHT22;9072;51.918;4.380;2024-01-16T01:42:29;1.10;99.90
17893;DHT22;9072;51.918;4.380;2024-01-16T01:44:56;1.20;99.90
17893;DHT22;9072;51.918;4.380;2024-01-16T01:47:24;1.20;99.90
17893;DHT22;9072;51.918;4.380;2024-01-16T01:49:51;1.20;99.90
17893;DHT22;9072;51.918;4.380;2024-01-16T01:52:19;1.20;99.90
17893;DHT22;9072;51.918;4.380;2024-01-16T01:54:46;1.20;99.90
17893;DHT22;9072;51.918;4.380;2024-01-16T01:57:16;1.30;99.90
17893;DHT22;9072;51.918;4.380;2024-01-16T01:59:43;1.20;99.90
17893;DHT22;9072;51.918;4.380;2024-01-16T02:02:12;1.20;99.90
17893;DHT22;9072;51.918;4.380;2024-01-16T02:04:40;1.20;99.90
17893;DHT22;9072;51.918;4.380;2024-01-16T02:07:07;1.20;99.90
17893;DHT22;9072;51.918;4.380;2024-01-16T02:09:35;1.20;99.90
17893;DHT22;9072;51.918;4.380;2024-01-16T02:12:04;1.20;99.90
17893;DHT22;9072;51.918;4.380;2024-01-16T02:14:33;1.20;99.90
17893;DHT22;9072;51.918;4.380;2024-01-16T02:17:00;1.20;99.90
17893;DHT22;9072;51.918;4.380;2024-01-16T02:19:30;1.30;99.90
17893;DHT22;9072;51.918;4.380;2024-01-16T02:21:59;1.20;99.90
17893;DHT22;9072;51.918;4.380;2024-01-16T02:24:28;1.30;99.90
17893;DHT22;9072;51.918;4.380;2024-01-16T02:26:56;1.30;99.90
17893;DHT22;9072;51.918;4.380;2024-01-16T02:29:24;1.20;99.90
17893;DHT22;9072;51.918;4.380;2024-01-16T02:31:51;1.20;99.90
17893;DHT22;9072;51.918;4.380;2024-01-16T02:34:18;1.20;99.90
17893;DHT22;9072;51.918;4.380;2024-01-16T02:36:46;1.30;99.90
17893;DHT22;9072;51.918;4.380;2024-01-16T02:39:13;1.20;99.90
17893;DHT22;9072;51.918;4.380;2024-01-16T02:41:41;1.20;99.90
17893;DHT22;9072;51.918;4.380;2024-01-16T02:44:09;1.30;99.90
17893;DHT22;9072;51.918;4.380;2024-01-16T02:46:36;1.20;99.90
17893;DHT22;9072;51.918;4.380;2024-01-16T02:49:04;1.30;99.90
17893;DHT22;9072;51.918;4.380;2024-01-16T02:51:33;1.30;99.90
17893;DHT22;9072;51.918;4.380;2024-01-16T02:54:00;1.20;99.90
17893;DHT22;9072;51.918;4.380;2024-01-16T02:56:27;1.30;99.90
17893;DHT22;9072;51.918;4.380;2024-01-16T02:58:58;1.30;99.90
17893;DHT22;9072;51.918;4.380;2024-01-16T03:01:25;1.20;99.90
17893;DHT22;9072;51.918;4.380;2024-01-16T03:03:53;1.20;99.90
17893;DHT22;9072;51.918;4.380;2024-01-16T03:06:23;1.20;99.90
17893;DHT22;9072;51.918;4.380;2024-01-16T03:08:51;1.20;99.90
17893;DHT22;9072;51.918;4.380;2024-01-16T03:11:18;1.10;99.90
17893;DHT22;9072;51.918;4.380;2024-01-16T03:13:45;1.10;99.90
17893;DHT22;9072;51.918;4.380;2024-01-16T03:16:16;1.10;99.90
17893;DHT22;9072;51.918;4.380;2024-01-16T03:18:43;1.00;99.90
17893;DHT22;9072;51.918;4.380;2024-01-16T03:21:12;1.10;99.90
17893;DHT22;9072;51.918;4.380;2024-01-16T03:23:40;1.10;99.90
17893;DHT22;9072;51.918;4.380;2024-01-16T03:26:11;1.10;99.90
17893;DHT22;9072;51.918;4.380;2024-01-16T03:28:38;1.10;99.90
17893;DHT22;9072;51.918;4.380;2024-01-16T03:31:05;1.10;99.90
17893;DHT22;9072;51.918;4.380;2024-01-16T03:33:34;1.10;99.90
17893;DHT22;9072;51.918;4.380;2024-01-16T03:36:08;1.10;99.90
17893;DHT22;9072;51.918;4.380;2024-01-16T03:38:36;1.10;99.90
17893;DHT22;9072;51.918;4.380;2024-01-16T03:41:03;1.10;99.90
17893;DHT22;9072;51.918;4.380;2024-01-16T03:43:32;1.10;99.90
17893;DHT22;9072;51.918;4.380;2024-01-16T03:46:00;1.10;99.90
17893;DHT22;9072;51.918;4.380;2024-01-16T03:48:28;1.10;99.90
17893;DHT22;9072;51.918;4.380;2024-01-16T03:50:56;1.10;99.90
17893;DHT22;9072;51.918;4.380;2024-01-16T03:53:24;1.10;99.90
17893;DHT22;9072;51.918;4.380;2024-01-16T03:55:51;1.10;99.90
17893;DHT22;9072;51.918;4.380;2024-01-16T03:58:18;1.10;99.90
17893;DHT22;9072;51.918;4.380;2024-01-16T04:00:46;1.10;99.90
17893;DHT22;9072;51.918;4.380;2024-01-16T04:03:16;1.10;99.90
17893;DHT22;9072;51.918;4.380;2024-01-16T04:05:43;1.20;99.90
17893;DHT22;9072;51.918;4.380;2024-01-16T04:08:12;1.20;99.90
17893;DHT22;9072;51.918;4.380;2024-01-16T04:10:39;1.20;99.90
17893;DHT22;9072;51.918;4.380;2024-01-16T04:13:07;1.20;99.90
17893;DHT22;9072;51.918;4.380;2024-01-16T04:15:38;1.20;99.90
17893;DHT22;9072;51.918;4.380;2024-01-16T04:18:05;1.10;99.90
17893;DHT22;9072;51.918;4.380;2024-01-16T04:20:33;1.10;99.90
17893;DHT22;9072;51.918;4.380;2024-01-16T04:23:00;1.10;99.90
17893;DHT22;9072;51.918;4.380;2024-01-16T04:25:28;1.10;99.90
17893;DHT22;9072;51.918;4.380;2024-01-16T04:27:56;1.10;99.90
17893;DHT22;9072;51.918;4.380;2024-01-16T04:30:23;1.10;99.90
17893;DHT22;9072;51.918;4.380;2024-01-16T04:32:50;1.10;99.90
17893;DHT22;9072;51.918;4.380;2024-01-16T04:35:17;1.00;99.90
17893;DHT22;9072;51.918;4.380;2024-01-16T04:37:44;1.00;99.90
17893;DHT22;9072;51.918;4.380;2024-01-16T04:40:12;1.00;99.90
17893;DHT22;9072;51.918;4.380;2024-01-16T04:42:40;1.00;99.90
17893;DHT22;9072;51.918;4.380;2024-01-16T04:45:08;1.00;99.90
17893;DHT22;9072;51.918;4.380;2024-01-16T04:47:36;1.00;99.90
17893;DHT22;9072;51.918;4.380;2024-01-16T04:50:03;1.00;99.90
17893;DHT22;9072;51.918;4.380;2024-01-16T04:52:31;1.10;99.90
17893;DHT22;9072;51.918;4.380;2024-01-16T04:54:58;1.00;99.90
17893;DHT22;9072;51.918;4.380;2024-01-16T04:57:25;1.00;99.90
17893;DHT22;9072;51.918;4.380;2024-01-16T04:59:54;1.00;99.90
17893;DHT22;9072;51.918;4.380;2024-01-16T05:02:23;1.00;99.90
17893;DHT22;9072;51.918;4.380;2024-01-16T05:04:53;0.90;99.90
17893;DHT22;9072;51.918;4.380;2024-01-16T05:07:23;1.00;99.90
17893;DHT22;9072;51.918;4.380;2024-01-16T05:09:50;0.90;99.90
17893;DHT22;9072;51.918;4.380;2024-01-16T05:12:17;0.90;99.90
17893;DHT22;9072;51.918;4.380;2024-01-16T05:14:44;0.90;99.90
17893;DHT22;9072;51.918;4.380;2024-01-16T05:17:13;0.90;99.90
17893;DHT22;9072;51.918;4.380;2024-01-16T05:19:40;0.80;99.90
17893;DHT22;9072;51.918;4.380;2024-01-16T05:22:09;0.80;99.90
17893;DHT22;9072;51.918;4.380;2024-01-16T05:24:36;0.80;99.90
17893;DHT22;9072;51.918;4.380;2024-01-16T05:27:04;0.80;99.90
17893;DHT22;9072;51.918;4.380;2024-01-16T05:29:31;0.80;99.90
17893;DHT22;9072;51.918;4.380;2024-01-16T05:31:58;0.80;99.90
17893;DHT22;9072;51.918;4.380;2024-01-16T05:34:27;0.80;99.90
17893;DHT22;9072;51.918;4.380;2024-01-16T05:36:55;0.80;99.90
17893;DHT22;9072;51.918;4.380;2024-01-16T05:39:24;0.90;99.90
17893;DHT22;9072;51.918;4.380;2024-01-16T05:41:52;0.90;99.90
17893;DHT22;9072;51.918;4.380;2024-01-16T05:44:19;0.90;99.90
17893;DHT22;9072;51.918;4.380;2024-01-16T05:46:46;0.90;99.90
17893;DHT22;9072;51.918;4.380;2024-01-16T05:49:13;0.90;99.90
17893;DHT22;9072;51.918;4.380;2024-01-16T05:51:42;0.90;99.90
17893;DHT22;9072;51.918;4.380;2024-01-16T05:54:09;0.90;99.90
17893;DHT22;9072;51.918;4.380;2024-01-16T05:56:36;0.90;99.90
17893;DHT22;9072;51.918;4.380;2024-01-16T05:59:03;1.00;99.90
17893;DHT22;9072;51.918;4.380;2024-01-16T06:01:32;1.00;99.90
17893;DHT22;9072;51.918;4.380;2024-01-16T06:03:59;1.00;99.90
17893;DHT22;9072;51.918;4.380;2024-01-16T06:06:26;1.00;99.90
17893;DHT22;9072;51.918;4.380;2024-01-16T06:08:56;1.00;99.90
17893;DHT22;9072;51.918;4.380;2024-01-16T06:11:30;0.90;99.90
17893;DHT22;9072;51.918;4.380;2024-01-16T06:13:57;0.90;99.90
17893;DHT22;9072;51.918;4.380;2024-01-16T06:16:24;1.00;99.90
17893;DHT22;9072;51.918;4.380;2024-01-16T06:18:51;0.90;99.90
17893;DHT22;9072;51.918;4.380;2024-01-16T06:21:19;0.90;99.90
17893;DHT22;9072;51.918;4.380;2024-01-16T06:23:46;0.90;99.90
17893;DHT22;9072;51.918;4.380;2024-01-16T06:26:15;0.90;99.90
17893;DHT22;9072;51.918;4.380;2024-01-16T06:28:42;0.90;99.90
17893;DHT22;9072;51.918;4.380;2024-01-16T06:31:09;1.00;99.90
17893;DHT22;9072;51.918;4.380;2024-01-16T06:33:36;1.00;99.90
17893;DHT22;9072;51.918;4.380;2024-01-16T06:36:06;1.00;99.90
17893;DHT22;9072;51.918;4.380;2024-01-16T06:38:39;1.00;99.90
17893;DHT22;9072;51.918;4.380;2024-01-16T06:41:12;1.00;99.90
17893;DHT22;9072;51.918;4.380;2024-01-16T06:43:40;1.00;99.90
17893;DHT22;9072;51.918;4.380;2024-01-16T06:46:08;1.10;99.90
17893;DHT22;9072;51.918;4.380;2024-01-16T06:48:37;1.10;99.90
17893;DHT22;9072;51.918;4.380;2024-01-16T06:51:05;1.10;99.90
17893;DHT22;9072;51.918;4.380;2024-01-16T06:53:33;1.10;99.90
17893;DHT22;9072;51.918;4.380;2024-01-16T06:56:03;1.10;99.90
17893;DHT22;9072;51.918;4.380;2024-01-16T06:58:35;1.10;99.90
17893;DHT22;9072;51.918;4.380;2024-01-16T07:01:06;1.10;99.90
17893;DHT22;9072;51.918;4.380;2024-01-16T07:03:34;1.10;99.90
17893;DHT22;9072;51.918;4.380;2024-01-16T07:06:02;1.10;99.90
17893;DHT22;9072;51.918;4.380;2024-01-16T07:08:31;1.10;99.90
17893;DHT22;9072;51.918;4.380;2024-01-16T07:10:58;1.10;99.90
17893;DHT22;9072;51.918;4.380;2024-01-16T07:13:29;1.10;99.90
17893;DHT22;9072;51.918;4.380;2024-01-16T07:15:56;1.10;99.90
17893;DHT22;9072;51.918;4.380;2024-01-16T07:18:26;1.10;99.90
17893;DHT22;9072;51.918;4.380;2024-01-16T07:20:53;1.10;99.90
17893;DHT22;9072;51.918;4.380;2024-01-16T07:23:22;1.10;99.90
17893;DHT22;9072;51.918;4.380;2024-01-16T07:25:51;1.10;99.90
17893;DHT22;9072;51.918;4.380;2024-01-16T07:28:20;1.10;99.90
17893;DHT22;9072;51.918;4.380;2024-01-16T07:30:47;1.10;99.90
17893;DHT22;9072;51.918;4.380;2024-01-16T07:33:14;1.10;99.90
17893;DHT22;9072;51.918;4.380;2024-01-16T07:35:43;1.10;99.90
17893;DHT22;9072;51.918;4.380;2024-01-16T07:38:13;1.10;99.90
17893;DHT22;9072;51.918;4.380;2024-01-16T07:40:40;1.10;99.90
17893;DHT22;9072;51.918;4.380;2024-01-16T07:43:07;1.10;99.90
17893;DHT22;9072;51.918;4.380;2024-01-16T07:45:35;1.10;99.90
17893;DHT22;9072;51.918;4.380;2024-01-16T07:48:02;1.00;99.90
17893;DHT22;9072;51.918;4.380;2024-01-16T07:50:32;1.00;99.90
17893;DHT22;9072;51.918;4.380;2024-01-16T07:53:01;1.00;99.90
17893;DHT22;9072;51.918;4.380;2024-01-16T07:55:31;1.00;99.90
17893;DHT22;9072;51.918;4.380;2024-01-16T07:57:58;0.90;99.90
17893;DHT22;9072;51.918;4.380;2024-01-16T08:00:26;0.90;99.90
17893;DHT22;9072;51.918;4.380;2024-01-16T08:02:53;0.90;99.90
17893;DHT22;9072;51.918;4.380;2024-01-16T08:05:20;0.90;99.90
17893;DHT22;9072;51.918;4.380;2024-01-16T08:07:51;0.90;99.90
17893;DHT22;9072;51.918;4.380;2024-01-16T08:10:20;1.00;99.90
17893;DHT22;9072;51.918;4.380;2024-01-16T08:12:47;1.00;99.90
17893;DHT22;9072;51.918;4.380;2024-01-16T08:15:14;1.00;99.90
17893;DHT22;9072;51.918;4.380;2024-01-16T08:17:41;1.00;99.90
17893;DHT22;9072;51.918;4.380;2024-01-16T08:20:09;1.00;99.90
17893;DHT22;9072;51.918;4.380;2024-01-16T08:22:36;1.00;99.90
17893;DHT22;9072;51.918;4.380;2024-01-16T08:25:07;1.00;99.90
17893;DHT22;9072;51.918;4.380;2024-01-16T08:27:38;1.00;99.90
17893;DHT22;9072;51.918;4.380;2024-01-16T08:30:06;1.00;99.90
17893;DHT22;9072;51.918;4.380;2024-01-16T08:32:33;1.00;99.90
17893;DHT22;9072;51.918;4.380;2024-01-16T08:35:01;1.10;99.90
17893;DHT22;9072;51.918;4.380;2024-01-16T08:37:31;1.00;99.90
17893;DHT22;9072;51.918;4.380;2024-01-16T08:39:59;1.00;99.90
17893;DHT22;9072;51.918;4.380;2024-01-16T08:42:26;1.00;99.90
17893;DHT22;9072;51.918;4.380;2024-01-16T08:44:54;1.00;99.90
17893;DHT22;9072;51.918;4.380;2024-01-16T08:47:22;1.10;99.90
17893;DHT22;9072;51.918;4.380;2024-01-16T08:49:49;1.10;99.90
17893;DHT22;9072;51.918;4.380;2024-01-16T08:52:19;1.10;99.90
17893;DHT22;9072;51.918;4.380;2024-01-16T08:54:46;1.10;99.90
17893;DHT22;9072;51.918;4.380;2024-01-16T08:57:14;1.10;99.90
17893;DHT22;9072;51.918;4.380;2024-01-16T08:59:44;1.10;99.90
17893;DHT22;9072;51.918;4.380;2024-01-16T09:02:12;1.20;99.90
17893;DHT22;9072;51.918;4.380;2024-01-16T09:04:40;1.20;99.90
17893;DHT22;9072;51.918;4.380;2024-01-16T09:07:07;1.20;99.90
17893;DHT22;9072;51.918;4.380;2024-01-16T09:09:34;1.20;99.90
17893;DHT22;9072;51.918;4.380;2024-01-16T09:12:01;1.20;99.90
17893;DHT22;9072;51.918;4.380;2024-01-16T09:14:29;1.20;99.90
17893;DHT22;9072;51.918;4.380;2024-01-16T09:16:56;1.20;99.90
17893;DHT22;9072;51.918;4.380;2024-01-16T09:19:24;1.20;99.90
17893;DHT22;9072;51.918;4.380;2024-01-16T09:21:51;1.20;99.90
17893;DHT22;9072;51.918;4.380;2024-01-16T09:24:19;1.20;99.90
17893;DHT22;9072;51.918;4.380;2024-01-16T09:26:48;1.20;99.90
17893;DHT22;9072;51.918;4.380;2024-01-16T09:29:15;1.20;99.90
17893;DHT22;9072;51.918;4.380;2024-01-16T09:31:42;1.30;99.90
17893;DHT22;9072;51.918;4.380;2024-01-16T09:34:10;1.30;99.90
17893;DHT22;9072;51.918;4.380;2024-01-16T09:36:40;1.30;99.90
17893;DHT22;9072;51.918;4.380;2024-01-16T09:39:07;1.30;99.90
17893;DHT22;9072;51.918;4.380;2024-01-16T09:41:36;1.20;99.90
17893;DHT22;9072;51.918;4.380;2024-01-16T09:44:04;1.20;99.90
17893;DHT22;9072;51.918;4.380;2024-01-16T09:46:33;1.20;99.90
17893;DHT22;9072;51.918;4.380;2024-01-16T09:49:01;1.20;99.90
17893;DHT22;9072;51.918;4.380;2024-01-16T09:51:29;1.10;99.90
17893;DHT22;9072;51.918;4.380;2024-01-16T09:54:00;1.10;99.90
17893;DHT22;9072;51.918;4.380;2024-01-16T09:56:27;1.10;99.90
17893;DHT22;9072;51.918;4.380;2024-01-16T09:59:00;1.10;99.90
17893;DHT22;9072;51.918;4.380;2024-01-16T10:01:33;1.10;99.90
17893;DHT22;9072;51.918;4.380;2024-01-16T10:04:01;1.00;99.90
17893;DHT22;9072;51.918;4.380;2024-01-16T10:06:30;1.00;99.90
17893;DHT22;9072;51.918;4.380;2024-01-16T10:09:03;1.00;99.90
17893;DHT22;9072;51.918;4.380;2024-01-16T10:11:33;0.90;99.90
17893;DHT22;9072;51.918;4.380;2024-01-16T10:14:00;0.90;99.90
17893;DHT22;9072;51.918;4.380;2024-01-16T10:16:55;0.90;99.90
17893;DHT22;9072;51.918;4.380;2024-01-16T10:19:22;0.90;99.90
17893;DHT22;9072;51.918;4.380;2024-01-16T10:21:50;0.90;99.90
17893;DHT22;9072;51.918;4.380;2024-01-16T10:24:19;0.90;99.90
17893;DHT22;9072;51.918;4.380;2024-01-16T10:26:57;0.90;99.90
17893;DHT22;9072;51.918;4.380;2024-01-16T10:29:26;0.90;99.90
17893;DHT22;9072;51.918;4.380;2024-01-16T10:31:55;1.00;99.90
17893;DHT22;9072;51.918;4.380;2024-01-16T10:34:23;1.00;99.90
17893;DHT22;9072;51.918;4.380;2024-01-16T10:36:51;1.00;99.90
17893;DHT22;9072;51.918;4.380;2024-01-16T10:39:20;1.00;99.90
17893;DHT22;9072;51.918;4.380;2024-01-16T10:41:54;1.10;99.90
17893;DHT22;9072;51.918;4.380;2024-01-16T10:44:22;1.10;99.90
17893;DHT22;9072;51.918;4.380;2024-01-16T10:46:49;1.10;99.90
17893;DHT22;9072;51.918;4.380;2024-01-16T10:49:16;1.10;99.90
17893;DHT22;9072;51.918;4.380;2024-01-16T10:51:44;1.20;99.90
17893;DHT22;9072;51.918;4.380;2024-01-16T10:54:14;1.20;99.90
17893;DHT22;9072;51.918;4.380;2024-01-16T10:56:50;1.20;99.90
17893;DHT22;9072;51.918;4.380;2024-01-16T10:59:21;1.20;99.90
17893;DHT22;9072;51.918;4.380;2024-01-16T11:01:53;1.20;99.90
17893;DHT22;9072;51.918;4.380;2024-01-16T11:04:31;1.20;99.90
17893;DHT22;9072;51.918;4.380;2024-01-16T11:06:59;1.30;99.90
17893;DHT22;9072;51.918;4.380;2024-01-16T11:09:29;1.20;99.90
17893;DHT22;9072;51.918;4.380;2024-01-16T11:12:17;1.20;99.90
17893;DHT22;9072;51.918;4.380;2024-01-16T11:14:45;1.30;99.90
17893;DHT22;9072;51.918;4.380;2024-01-16T11:17:18;1.20;99.90
17893;DHT22;9072;51.918;4.380;2024-01-16T11:19:49;1.30;99.90
17893;DHT22;9072;51.918;4.380;2024-01-16T11:22:18;1.30;99.90
17893;DHT22;9072;51.918;4.380;2024-01-16T11:24:45;1.30;99.90
17893;DHT22;9072;51.918;4.380;2024-01-16T11:27:31;1.30;99.90
17893;DHT22;9072;51.918;4.380;2024-01-16T11:29:58;1.40;99.90
17893;DHT22;9072;51.918;4.380;2024-01-16T11:32:36;1.40;99.90
17893;DHT22;9072;51.918;4.380;2024-01-16T11:35:04;1.40;99.90
17893;DHT22;9072;51.918;4.380;2024-01-16T11:37:32;1.40;99.90
17893;DHT22;9072;51.918;4.380;2024-01-16T11:40:25;1.50;99.90
17893;DHT22;9072;51.918;4.380;2024-01-16T11:42:55;1.50;99.90
17893;DHT22;9072;51.918;4.380;2024-01-16T11:45:50;1.50;99.90
17893;DHT22;9072;51.918;4.380;2024-01-16T11:48:17;1.50;99.90
17893;DHT22;9072;51.918;4.380;2024-01-16T11:50:48;1.50;99.90
17893;DHT22;9072;51.918;4.380;2024-01-16T11:53:35;1.50;99.90
17893;DHT22;9072;51.918;4.380;2024-01-16T12:02:25;1.50;99.90
17893;DHT22;9072;51.918;4.380;2024-01-16T12:04:53;1.50;99.90
17893;DHT22;9072;51.918;4.380;2024-01-16T12:07:22;1.60;99.90
17893;DHT22;9072;51.918;4.380;2024-01-16T12:09:50;1.60;99.90
17893;DHT22;9072;51.918;4.380;2024-01-16T12:12:17;1.60;99.90
17893;DHT22;9072;51.918;4.380;2024-01-16T12:14:55;1.60;99.90
17893;DHT22;9072;51.918;4.380;2024-01-16T12:17:24;1.70;99.90
17893;DHT22;9072;51.918;4.380;2024-01-16T12:19:51;1.70;99.90
17893;DHT22;9072;51.918;4.380;2024-01-16T12:22:18;1.70;99.90
17893;DHT22;9072;51.918;4.380;2024-01-16T12:24:48;1.70;99.90
17893;DHT22;9072;51.918;4.380;2024-01-16T12:27:15;1.70;99.90
17893;DHT22;9072;51.918;4.380;2024-01-16T12:29:43;1.70;99.90
17893;DHT22;9072;51.918;4.380;2024-01-16T12:32:10;1.70;99.90
17893;DHT22;9072;51.918;4.380;2024-01-16T12:34:46;1.70;99.90
17893;DHT22;9072;51.918;4.380;2024-01-16T12:37:14;1.70;99.90
17893;DHT22;9072;51.918;4.380;2024-01-16T12:39:47;1.60;99.90
17893;DHT22;9072;51.918;4.380;2024-01-16T12:42:17;1.70;99.90
17893;DHT22;9072;51.918;4.380;2024-01-16T12:44:45;1.70;99.90
17893;DHT22;9072;51.918;4.380;2024-01-16T12:47:15;1.70;99.90
17893;DHT22;9072;51.918;4.380;2024-01-16T12:49:46;1.70;99.90
17893;DHT22;9072;51.918;4.380;2024-01-16T12:52:20;1.70;99.90
17893;DHT22;9072;51.918;4.380;2024-01-16T12:54:48;1.70;99.90
17893;DHT22;9072;51.918;4.380;2024-01-16T12:57:19;1.70;99.90
17893;DHT22;9072;51.918;4.380;2024-01-16T12:59:47;1.70;99.90
17893;DHT22;9072;51.918;4.380;2024-01-16T13:02:21;1.70;99.90
17893;DHT22;9072;51.918;4.380;2024-01-16T13:04:58;1.80;99.90
17893;DHT22;9072;51.918;4.380;2024-01-16T13:07:25;1.80;99.90
17893;DHT22;9072;51.918;4.380;2024-01-16T13:10:06;1.90;99.90
17893;DHT22;9072;51.918;4.380;2024-01-16T13:12:34;1.90;99.90
17893;DHT22;9072;51.918;4.380;2024-01-16T13:15:02;1.80;99.90
17893;DHT22;9072;51.918;4.380;2024-01-16T13:17:32;1.90;99.90
17893;DHT22;9072;51.918;4.380;2024-01-16T13:20:02;1.80;99.90
17893;DHT22;9072;51.918;4.380;2024-01-16T13:22:33;1.90;99.90
17893;DHT22;9072;51.918;4.380;2024-01-16T13:25:00;1.80;99.90
17893;DHT22;9072;51.918;4.380;2024-01-16T13:27:27;1.80;99.90
17893;DHT22;9072;51.918;4.380;2024-01-16T13:29:56;1.80;99.90
17893;DHT22;9072;51.918;4.380;2024-01-16T13:32:26;1.80;99.90
17893;DHT22;9072;51.918;4.380;2024-01-16T13:34:53;1.80;99.90
17893;DHT22;9072;51.918;4.380;2024-01-16T13:37:22;1.80;99.90
17893;DHT22;9072;51.918;4.380;2024-01-16T13:39:49;1.80;99.90
17893;DHT22;9072;51.918;4.380;2024-01-16T13:42:17;1.90;99.90
17893;DHT22;9072;51.918;4.380;2024-01-16T13:44:46;1.90;99.90
17893;DHT22;9072;51.918;4.380;2024-01-16T13:47:15;1.90;99.90
17893;DHT22;9072;51.918;4.380;2024-01-16T13:49:44;2.00;99.90
17893;DHT22;9072;51.918;4.380;2024-01-16T13:52:11;2.10;99.90
17893;DHT22;9072;51.918;4.380;2024-01-16T13:54:40;2.10;99.90
17893;DHT22;9072;51.918;4.380;2024-01-16T13:57:08;2.10;99.90
17893;DHT22;9072;51.918;4.380;2024-01-16T13:59:35;2.20;99.90
17893;DHT22;9072;51.918;4.380;2024-01-16T14:02:03;2.20;99.90
17893;DHT22;9072;51.918;4.380;2024-01-16T14:04:29;2.20;99.90
17893;DHT22;9072;51.918;4.380;2024-01-16T14:06:57;2.20;99.90
17893;DHT22;9072;51.918;4.380;2024-01-16T14:09:24;2.30;99.90
17893;DHT22;9072;51.918;4.380;2024-01-16T14:11:53;2.30;99.90
17893;DHT22;9072;51.918;4.380;2024-01-16T14:14:20;2.30;99.90
17893;DHT22;9072;51.918;4.380;2024-01-16T14:16:47;2.30;99.90
17893;DHT22;9072;51.918;4.380;2024-01-16T14:19:15;2.30;99.90
17893;DHT22;9072;51.918;4.380;2024-01-16T14:21:43;2.40;99.90
17893;DHT22;9072;51.918;4.380;2024-01-16T14:24:10;2.40;99.90
17893;DHT22;9072;51.918;4.380;2024-01-16T14:26:42;2.40;99.90
17893;DHT22;9072;51.918;4.380;2024-01-16T14:29:13;2.30;99.90
17893;DHT22;9072;51.918;4.380;2024-01-16T14:31:41;2.30;99.90
17893;DHT22;9072;51.918;4.380;2024-01-16T14:34:10;2.30;99.90
17893;DHT22;9072;51.918;4.380;2024-01-16T14:36:42;2.20;99.90
17893;DHT22;9072;51.918;4.380;2024-01-16T14:39:09;2.20;99.90
17893;DHT22;9072;51.918;4.380;2024-01-16T14:41:39;2.20;99.90
17893;DHT22;9072;51.918;4.380;2024-01-16T14:44:08;2.10;99.90
17893;DHT22;9072;51.918;4.380;2024-01-16T14:46:37;2.10;99.90
17893;DHT22;9072;51.918;4.380;2024-01-16T14:49:04;2.10;99.90
17893;DHT22;9072;51.918;4.380;2024-01-16T14:51:31;2.10;99.90
17893;DHT22;9072;51.918;4.380;2024-01-16T14:54:09;2.10;99.90
17893;DHT22;9072;51.918;4.380;2024-01-16T14:56:37;2.10;99.90
17893;DHT22;9072;51.918;4.380;2024-01-16T14:59:04;2.10;99.90
17893;DHT22;9072;51.918;4.380;2024-01-16T15:01:31;2.10;99.90
17893;DHT22;9072;51.918;4.380;2024-01-16T15:04:00;2.10;99.90
17893;DHT22;9072;51.918;4.380;2024-01-16T15:06:27;2.10;99.90
17893;DHT22;9072;51.918;4.380;2024-01-16T15:08:55;2.20;99.90
17893;DHT22;9072;51.918;4.380;2024-01-16T15:11:22;2.10;99.90
17893;DHT22;9072;51.918;4.380;2024-01-16T15:13:50;2.20;99.90
17893;DHT22;9072;51.918;4.380;2024-01-16T15:16:24;2.20;99.90
17893;DHT22;9072;51.918;4.380;2024-01-16T15:18:51;2.10;99.90
17893;DHT22;9072;51.918;4.380;2024-01-16T15:21:20;2.10;99.90
17893;DHT22;9072;51.918;4.380;2024-01-16T15:23:47;2.10;99.90
17893;DHT22;9072;51.918;4.380;2024-01-16T15:26:17;2.10;99.90
17893;DHT22;9072;51.918;4.380;2024-01-16T15:28:48;2.00;99.90
17893;DHT22;9072;51.918;4.380;2024-01-16T15:31:15;2.00;99.90
17893;DHT22;9072;51.918;4.380;2024-01-16T15:33:42;2.00;99.90
17893;DHT22;9072;51.918;4.380;2024-01-16T15:36:09;2.00;99.90
17893;DHT22;9072;51.918;4.380;2024-01-16T15:38:38;2.00;99.90
17893;DHT22;9072;51.918;4.380;2024-01-16T15:41:05;1.90;99.90
17893;DHT22;9072;51.918;4.380;2024-01-16T15:43:32;1.90;99.90
17893;DHT22;9072;51.918;4.380;2024-01-16T15:46:00;1.90;99.90
17893;DHT22;9072;51.918;4.380;2024-01-16T15:48:27;1.90;99.90
17893;DHT22;9072;51.918;4.380;2024-01-16T15:50:59;1.90;99.90
17893;DHT22;9072;51.918;4.380;2024-01-16T15:53:26;1.90;99.90
17893;DHT22;9072;51.918;4.380;2024-01-16T15:55:58;2.00;99.90
17893;DHT22;9072;51.918;4.380;2024-01-16T15:58:26;2.00;99.90
17893;DHT22;9072;51.918;4.380;2024-01-16T16:00:57;2.00;99.90
17893;DHT22;9072;51.918;4.380;2024-01-16T16:03:24;2.00;99.90
17893;DHT22;9072;51.918;4.380;2024-01-16T16:05:52;1.90;99.90
17893;DHT22;9072;51.918;4.380;2024-01-16T16:08:20;1.90;99.90
17893;DHT22;9072;51.918;4.380;2024-01-16T16:10:49;1.90;99.90
17893;DHT22;9072;51.918;4.380;2024-01-16T16:13:19;1.90;99.90
17893;DHT22;9072;51.918;4.380;2024-01-16T16:15:51;1.90;99.90
17893;DHT22;9072;51.918;4.380;2024-01-16T16:18:21;1.80;99.90